Time;durP1;ratioP1;P1;durP2;ratioP2;P2;SDS_P1;SDS_P2;PMS_P1;PMS_P2;Temp;Humidity;BMP_temperature;BMP_pressure;BME280_temperature;BME280_humidity;BME280_pressure;Samples;Min_cycle;Max_cycle;Signal;HPM_P1;HPM_P2
2021/03/06 00:00:30;;;;;;;3.60;2.40;;;0.30;99.90;;;;;;5075079;28;20285;-86
2021/03/06 00:02:56;;;;;;;3.63;2.90;;;0.30;99.90;;;;;;5076137;28;20289;-90
2021/03/06 00:05:26;;;;;;;6.90;3.30;;;0.20;99.90;;;;;;5075839;28;20312;-89
2021/03/06 00:07:54;;;;;;;5.72;3.47;;;0.10;99.90;;;;;;5075776;28;20206;-87
2021/03/06 00:10:21;;;;;;;5.32;3.90;;;;;;;;;;5075346;28;20343;-87
2021/03/06 00:12:49;;;;;;;9.25;4.53;;;-0.10;99.90;;;;;;5075452;28;20330;-84
2021/03/06 00:15:18;;;;;;;6.90;4.40;;;-0.20;99.90;;;;;;5075027;28;20245;-88
2021/03/06 00:17:44;;;;;;;6.07;4.95;;;;;;;;;;5075467;28;20592;-87
2021/03/06 00:20:11;;;;;;;4.70;3.97;;;-0.20;99.90;;;;;;5072975;28;20288;-91
2021/03/06 00:22:39;;;;;;;9.95;4.70;;;-0.30;99.90;;;;;;5075850;28;20202;-89
2021/03/06 00:25:09;;;;;;;6.10;4.30;;;-0.30;99.90;;;;;;5074074;28;20201;-88
2021/03/06 00:27:36;;;;;;;5.93;4.30;;;-0.20;99.90;;;;;;5075688;28;20309;-90
2021/03/06 00:30:07;;;;;;;11.05;4.65;;;-0.40;99.90;;;;;;5073844;28;20248;-89
2021/03/06 00:32:33;;;;;;;8.80;4.88;;;-0.30;99.90;;;;;;5074692;28;20788;-89
2021/03/06 00:35:00;;;;;;;8.38;4.85;;;-0.40;99.90;;;;;;5074872;28;20297;-88
2021/03/06 00:37:26;;;;;;;7.78;4.70;;;1.50;99.90;;;;;;5074965;28;20289;-85
2021/03/06 00:39:53;;;;;;;4.55;3.65;;;;;;;;;;5078206;28;20276;-90
2021/03/06 00:42:21;;;;;;;9.15;4.40;;;-0.40;99.90;;;;;;5077641;28;20237;-91
2021/03/06 00:44:47;;;;;;;5.35;4.28;;;;;;;;;;5074487;28;20213;-89
2021/03/06 00:47:14;;;;;;;9.45;4.90;;;;;;;;;;5074961;28;20245;-90
2021/03/06 00:49:41;;;;;;;5.20;3.88;;;;;;;;;;5079257;28;20279;-87
2021/03/06 00:52:07;;;;;;;7.93;4.30;;;;;;;;;;5094580;28;20637;-87
2021/03/06 00:54:34;;;;;;;5.00;3.30;;;-0.40;99.90;;;;;;5094928;28;20243;-88
2021/03/06 00:57:01;;;;;;;5.03;3.00;;;;;;;;;;5095329;28;20291;-91
2021/03/06 00:59:28;;;;;;;2.35;2.15;;;-0.50;99.90;;;;;;5094460;28;20201;-91
2021/03/06 01:01:55;;;;;;;5.32;3.47;;;-0.50;99.90;;;;;;5095274;28;20599;-89
2021/03/06 01:04:21;;;;;;;4.85;4.13;;;1.90;99.90;;;;;;5092674;28;20204;-89
2021/03/06 01:06:48;;;;;;;5.00;2.38;;;1.70;99.90;;;;;;5096777;27;20791;-88
2021/03/06 01:09:14;;;;;;;3.00;2.58;;;-0.30;99.90;;;;;;5094697;28;20297;-86
2021/03/06 01:11:41;;;;;;;7.55;3.00;;;;;;;;;;5094892;28;20284;-86
2021/03/06 01:14:07;;;;;;;6.63;3.75;;;-0.30;99.90;;;;;;5093793;28;20275;-90
2021/03/06 01:16:35;;;;;;;3.78;2.95;;;-0.40;99.90;;;;;;5099910;28;20229;-91
2021/03/06 01:19:01;;;;;;;7.78;4.07;;;-0.40;99.90;;;;;;5094309;28;20236;-88
2021/03/06 01:21:28;;;;;;;6.68;4.18;;;;;;;;;;5094629;28;20251;-89
2021/03/06 01:23:55;;;;;;;6.72;5.72;;;-0.40;99.90;;;;;;5094563;28;20679;-87
2021/03/06 01:26:22;;;;;;;9.23;4.60;;;;;;;;;;5094882;28;20236;-87
2021/03/06 01:28:49;;;;;;;3.35;3.05;;;;;;;;;;5092974;28;20241;-87
2021/03/06 01:31:15;;;;;;;3.17;2.88;;;-0.50;99.90;;;;;;5088978;28;20315;-88
2021/03/06 01:33:43;;;;;;;5.13;3.60;;;-0.50;99.90;;;;;;5076404;28;20324;-89
2021/03/06 01:36:09;;;;;;;6.20;2.95;;;-0.60;99.90;;;;;;5075733;28;20292;-89
2021/03/06 01:38:36;;;;;;;4.03;3.67;;;;;;;;;;5075433;28;20292;-86
2021/03/06 01:41:03;;;;;;;6.95;5.03;;;;;;;;;;5073708;28;20201;-87
2021/03/06 01:43:30;;;;;;;3.83;2.55;;;;;;;;;;5073315;28;20205;-87
2021/03/06 01:45:57;;;;;;;6.18;3.03;;;;;;;;;;5074581;28;20292;-86
2021/03/06 01:48:24;;;;;;;5.43;3.03;;;;;;;;;;5086513;28;20217;-86
2021/03/06 01:50:52;;;;;;;5.13;3.40;;;-0.50;99.90;;;;;;5097243;28;20205;-87
2021/03/06 01:53:19;;;;;;;4.25;3.25;;;-0.70;99.90;;;;;;5093099;28;20232;-86
2021/03/06 01:55:49;;;;;;;4.70;3.20;;;-0.80;99.90;;;;;;5086465;28;20206;-85
2021/03/06 01:58:16;;;;;;;6.30;3.63;;;;;;;;;;5097754;28;20193;-86
2021/03/06 02:00:43;;;;;;;8.25;3.70;;;-0.80;99.90;;;;;;5096777;28;20201;-86
2021/03/06 02:03:10;;;;;;;4.55;3.63;;;;;;;;;;5086337;28;20228;-86
2021/03/06 02:05:37;;;;;;;5.88;4.35;;;;;;;;;;5079945;28;20636;-86
2021/03/06 02:08:06;;;;;;;3.10;2.70;;;-0.80;99.90;;;;;;5079170;28;20273;-85
2021/03/06 02:10:37;;;;;;;7.30;3.88;;;-0.90;99.90;;;;;;5088738;28;20209;-89
2021/03/06 02:13:17;;;;;;;4.88;2.60;;;-0.90;99.90;;;;;;5075143;28;20265;-86
2021/03/06 02:15:59;;;;;;;6.13;3.40;;;-0.70;99.90;;;;;;5076883;28;20233;-87
2021/03/06 02:18:31;;;;;;;7.05;3.60;;;-0.90;99.90;;;;;;5073213;28;20628;-86
2021/03/06 02:21:00;;;;;;;4.60;2.85;;;2.10;99.90;;;;;;5071331;28;20292;-86
2021/03/06 02:24:16;;;;;;;4.28;3.33;;;-1.00;99.90;;;;;;5073282;28;20636;-87
2021/03/06 02:26:53;;;;;;;3.63;2.67;;;-0.90;99.90;;;;;;5074041;28;20288;-91
2021/03/06 02:29:42;;;;;;;4.10;3.03;;;-1.00;99.90;;;;;;5075210;28;20265;-90
2021/03/06 02:32:14;;;;;;;4.40;3.80;;;-1.10;99.90;;;;;;5073556;28;20301;-89
2021/03/06 02:34:46;;;;;;;5.25;3.50;;;-1.10;99.90;;;;;;5084394;28;20205;-86
2021/03/06 02:37:16;;;;;;;5.97;3.17;;;-1.10;99.90;;;;;;5073749;28;20334;-88
2021/03/06 02:39:45;;;;;;;6.65;3.63;;;1.90;99.90;;;;;;5073154;28;20206;-86
2021/03/06 02:42:15;;;;;;;3.92;3.38;;;0.10;99.90;;;;;;5073238;28;20201;-88
2021/03/06 02:44:43;;;;;;;5.20;4.15;;;-1.20;99.90;;;;;;5078899;28;20232;-92
2021/03/06 02:47:10;;;;;;;9.23;3.70;;;0.90;99.90;;;;;;5095871;28;20667;-87
2021/03/06 02:49:37;;;;;;;6.10;3.85;;;;;;;;;;5094004;28;20292;-88
2021/03/06 02:52:03;;;;;;;8.32;2.78;;;;;;;;;;5093763;28;20239;-89
2021/03/06 02:54:30;;;;;;;5.25;3.35;;;-1.30;99.90;;;;;;5093253;28;20295;-88
2021/03/06 02:56:57;;;;;;;4.43;3.05;;;;;;;;;;5092755;28;20295;-87
2021/03/06 03:00:00;;;;;;;7.90;5.07;;;-1.30;99.90;;;;;;5091807;28;20338;-87
2021/03/06 03:02:37;;;;;;;3.95;3.58;;;-1.30;99.90;;;;;;5092989;28;20243;-90
2021/03/06 03:05:15;;;;;;;4.30;3.47;;;-1.30;99.90;;;;;;5093952;28;20211;-88
2021/03/06 03:07:49;;;;;;;7.38;3.88;;;-1.30;99.90;;;;;;5093673;28;20635;-89
2021/03/06 03:10:17;;;;;;;9.98;2.95;;;-1.30;99.90;;;;;;5093472;28;20564;-87
2021/03/06 03:12:50;;;;;;;3.30;3.00;;;-1.30;99.90;;;;;;5092726;28;20323;-87
2021/03/06 03:15:23;;;;;;;2.30;2.10;;;-1.20;99.90;;;;;;5091980;28;20203;-87
2021/03/06 03:17:52;;;;;;;7.18;4.35;;;-1.20;99.90;;;;;;5092815;28;20201;-88
2021/03/06 03:20:28;;;;;;;4.82;3.03;;;1.20;99.90;;;;;;5092463;28;20228;-90
2021/03/06 03:22:59;;;;;;;3.25;2.90;;;-1.20;99.90;;;;;;5094546;28;20652;-88
2021/03/06 03:25:28;;;;;;;2.85;2.65;;;-1.20;99.90;;;;;;5093706;28;20220;-89
2021/03/06 03:27:55;;;;;;;3.10;2.35;;;-1.40;99.90;;;;;;5091567;28;20703;-87
2021/03/06 03:30:24;;;;;;;4.18;3.28;;;-1.40;99.90;;;;;;5092441;28;20292;-87
2021/03/06 03:32:52;;;;;;;4.88;3.72;;;-1.40;99.90;;;;;;5091334;28;20713;-85
2021/03/06 03:35:23;;;;;;;4.57;3.67;;;-1.40;99.90;;;;;;5092544;28;20291;-86
2021/03/06 03:37:52;;;;;;;8.93;2.70;;;-1.50;99.90;;;;;;5092451;28;20237;-86
2021/03/06 03:40:20;;;;;;;6.07;2.97;;;-0.20;99.90;;;;;;5092914;28;20282;-86
2021/03/06 03:42:47;;;;;;;6.75;3.47;;;-1.50;99.90;;;;;;5094514;28;20215;-87
2021/03/06 03:45:17;;;;;;;3.53;3.22;;;0.50;99.90;;;;;;5096023;28;20227;-85
2021/03/06 03:47:45;;;;;;;3.47;3.15;;;-1.60;99.90;;;;;;5095924;28;20240;-86
2021/03/06 03:50:13;;;;;;;4.45;3.42;;;-0.30;99.90;;;;;;5095001;28;20293;-86
2021/03/06 03:52:43;;;;;;;7.30;3.97;;;-1.70;99.90;;;;;;5095836;28;20280;-84
2021/03/06 03:55:10;;;;;;;6.68;3.55;;;-1.70;99.90;;;;;;5096288;28;20283;-85
2021/03/06 03:57:38;;;;;;;4.70;2.85;;;-1.50;99.90;;;;;;5096246;28;20288;-86
2021/03/06 04:00:06;;;;;;;3.53;2.70;;;-1.50;99.90;;;;;;5095101;28;20205;-88
2021/03/06 04:02:33;;;;;;;4.78;2.92;;;;;;;;;;5095852;28;20300;-86
2021/03/06 04:05:00;;;;;;;2.55;2.35;;;-1.60;99.90;;;;;;5095535;28;20232;-86
2021/03/06 04:07:26;;;;;;;4.63;3.08;;;-1.70;99.90;;;;;;5095861;28;20283;-86
2021/03/06 04:09:53;;;;;;;4.18;3.17;;;;;;;;;;5095694;28;20892;-87
2021/03/06 04:12:20;;;;;;;4.47;3.15;;;;;;;;;;5095633;28;20233;-86
2021/03/06 04:14:46;;;;;;;3.85;2.65;;;;;;;;;;5094559;28;20331;-89
2021/03/06 04:17:13;;;;;;;3.10;2.60;;;;;;;;;;5096616;28;20299;-88
2021/03/06 04:19:40;;;;;;;5.68;3.22;;;;;;;;;;5081559;28;20233;-88
2021/03/06 04:22:07;;;;;;;4.25;3.10;;;-1.30;99.90;;;;;;5075140;28;20245;-86
2021/03/06 04:24:33;;;;;;;2.88;2.63;;;-1.30;99.90;;;;;;5075285;28;20288;-86
2021/03/06 04:27:00;;;;;;;2.60;2.38;;;;;;;;;;5078790;28;20288;-87
2021/03/06 04:29:27;;;;;;;2.58;2.28;;;-1.20;99.90;;;;;;5073133;28;20233;-86
2021/03/06 04:31:53;;;;;;;3.17;2.42;;;;;;;;;;5075065;28;20243;-88
2021/03/06 04:34:20;;;;;;;4.53;3.55;;;-1.20;99.90;;;;;;5076669;28;20651;-89
2021/03/06 04:36:47;;;;;;;3.45;2.40;;;;;;;;;;5075139;28;20201;-89
2021/03/06 04:39:17;;;;;;;5.80;3.38;;;-1.30;99.90;;;;;;5074669;28;20638;-86
2021/03/06 04:41:44;;;;;;;3.60;2.63;;;;;;;;;;5074468;28;20206;-86
2021/03/06 04:44:13;;;;;;;2.75;2.55;;;;;;;;;;5073208;28;20245;-88
2021/03/06 04:46:40;;;;;;;3.67;3.25;;;;;;;;;;5040466;28;20216;-86
2021/03/06 04:49:06;;;;;;;4.03;3.30;;;-1.50;99.90;;;;;;5073592;28;20344;-86
2021/03/06 04:51:33;;;;;;;3.75;3.15;;;;;;;;;;5075008;28;20304;-88
2021/03/06 04:54:00;;;;;;;4.53;3.40;;;;;;;;;;5074978;28;20233;-87
2021/03/06 04:56:27;;;;;;;7.00;3.65;;;-1.70;99.90;;;;;;5073674;28;20304;-87
2021/03/06 04:58:54;;;;;;;6.25;2.67;;;;;;;;;;5073092;28;20635;-86
2021/03/06 05:01:20;;;;;;;4.88;2.45;;;;;;;;;;5072913;28;20205;-86
2021/03/06 05:03:47;;;;;;;3.78;3.15;;;;;;;;;;5074379;28;20237;-87
2021/03/06 05:06:14;;;;;;;4.13;3.15;;;;;;;;;;5074464;28;20255;-86
2021/03/06 05:08:40;;;;;;;4.88;4.28;;;;;;;;;;5074483;28;20720;-90
2021/03/06 05:11:08;;;;;;;4.38;2.83;;;-1.50;99.90;;;;;;5074824;28;20736;-87
2021/03/06 05:13:38;;;;;;;3.45;3.10;;;-1.90;99.90;;;;;;5075024;28;20316;-89
2021/03/06 05:16:06;;;;;;;6.00;2.83;;;-1.80;99.90;;;;;;5074832;28;20230;-88
2021/03/06 05:18:33;;;;;;;4.32;3.25;;;;;;;;;;5073919;28;20288;-89
2021/03/06 05:21:00;;;;;;;6.57;3.17;;;;;;;;;;5074337;28;20311;-87
2021/03/06 05:23:26;;;;;;;4.30;3.50;;;;;;;;;;5074128;28;20292;-88
2021/03/06 05:25:53;;;;;;;4.05;2.90;;;;;;;;;;5074280;28;20751;-89
2021/03/06 05:28:20;;;;;;;5.45;3.22;;;;;;;;;;5079239;28;20301;-89
2021/03/06 05:30:49;;;;;;;4.10;2.92;;;-1.90;99.90;;;;;;5087788;28;20237;-87
2021/03/06 05:33:16;;;;;;;9.00;4.55;;;;;;;;;;5081145;28;20759;-88
2021/03/06 05:35:43;;;;;;;22.35;7.57;;;;;;;;;;5093901;28;20608;-87
2021/03/06 05:38:10;;;;;;;28.38;12.23;;;;;;;;;;5094300;28;20287;-88
2021/03/06 05:40:39;;;;;;;19.70;11.60;;;-2.10;99.90;;;;;;5094197;28;20287;-89
2021/03/06 05:43:06;;;;;;;18.25;7.40;;;;;;;;;;5092703;28;20301;-88
2021/03/06 05:45:33;;;;;;;10.20;6.90;;;;;;;;;;5095383;28;20205;-92
2021/03/06 05:48:01;;;;;;;23.52;9.60;;;-2.30;99.90;;;;;;5093710;28;20228;-91
2021/03/06 05:50:29;;;;;;;11.40;6.70;;;-2.30;99.90;;;;;;5094458;28;20236;-89
2021/03/06 05:52:56;;;;;;;8.25;5.97;;;-2.40;99.90;;;;;;5093930;28;20224;-88
2021/03/06 05:55:25;;;;;;;20.73;10.32;;;-2.50;99.90;;;;;;5094131;28;20299;-89
2021/03/06 05:57:54;;;;;;;18.30;10.85;;;-2.50;99.90;;;;;;5093784;28;20250;-86
2021/03/06 06:00:21;;;;;;;10.40;5.72;;;-2.30;99.90;;;;;;5094003;28;20262;-88
2021/03/06 06:02:49;;;;;;;8.10;5.00;;;-2.50;99.90;;;;;;5102838;28;20205;-88
2021/03/06 06:05:17;;;;;;;10.07;4.85;;;-2.40;99.90;;;;;;5118326;28;20215;-89
2021/03/06 06:07:44;;;;;;;4.75;3.60;;;;;;;;;;5116142;28;20189;-88
2021/03/06 06:10:12;;;;;;;4.43;3.15;;;-2.50;99.90;;;;;;5111988;28;20225;-88
2021/03/06 06:12:42;;;;;;;4.45;3.08;;;-2.50;99.90;;;;;;5117923;28;20208;-87
2021/03/06 06:15:10;;;;;;;4.78;3.38;;;-1.90;99.90;;;;;;5118054;28;20195;-87
2021/03/06 06:17:36;;;;;;;5.63;3.60;;;-2.50;99.90;;;;;;5115245;28;20555;-87
2021/03/06 06:20:03;;;;;;;9.23;3.83;;;-2.40;99.90;;;;;;5085497;28;20202;-87
2021/03/06 06:22:31;;;;;;;3.50;2.70;;;-2.40;99.90;;;;;;5092114;28;20213;-88
2021/03/06 06:24:57;;;;;;;6.97;4.65;;;-2.40;99.90;;;;;;5074779;28;20292;-87
2021/03/06 06:27:25;;;;;;;4.50;3.72;;;-2.30;99.90;;;;;;5073299;28;20300;-86
2021/03/06 06:30:02;;;;;;;5.60;4.57;;;-2.10;99.90;;;;;;5076127;28;20240;-87
2021/03/06 06:32:41;;;;;;;5.18;3.50;;;-1.90;99.90;;;;;;5073292;28;20708;-85
2021/03/06 06:35:10;;;;;;;7.32;4.60;;;-1.90;99.90;;;;;;5072724;28;20740;-86
2021/03/06 06:37:37;;;;;;;13.73;6.35;;;-1.60;99.90;;;;;;5073303;28;20331;-90
2021/03/06 06:40:17;;;;;;;7.30;4.50;;;-1.50;99.90;;;;;;5073701;28;20288;-88
2021/03/06 06:42:46;;;;;;;9.90;5.72;;;;;;;;;;5073267;28;20209;-86
2021/03/06 06:45:15;;;;;;;7.50;5.28;;;-1.30;99.90;;;;;;5071923;28;20675;-86
2021/03/06 06:47:44;;;;;;;5.78;3.70;;;-1.20;99.90;;;;;;5073064;28;20284;-86
2021/03/06 06:50:13;;;;;;;4.22;3.17;;;-1.30;99.90;;;;;;5073660;28;20197;-86
2021/03/06 06:52:42;;;;;;;6.38;4.70;;;-1.10;99.90;;;;;;5090727;28;20209;-86
2021/03/06 06:55:10;;;;;;;5.22;3.40;;;-1.10;99.90;;;;;;5083770;28;20288;-84
2021/03/06 06:57:47;;;;;;;3.70;3.40;;;-0.90;99.90;;;;;;5092114;28;20693;-83
2021/03/06 07:00:15;;;;;;;3.75;2.88;;;-0.90;99.90;;;;;;5089936;28;20202;-85
2021/03/06 07:02:52;;;;;;;4.78;3.40;;;-0.70;99.90;;;;;;5081779;28;20236;-84
2021/03/06 07:05:28;;;;;;;4.40;2.50;;;-0.70;99.90;;;;;;5077821;28;20614;-86
2021/03/06 07:07:57;;;;;;;4.82;2.90;;;1.40;99.90;;;;;;5075531;28;20208;-86
2021/03/06 07:10:25;;;;;;;5.43;3.70;;;;;;;;;;5075159;28;20636;-84
2021/03/06 07:13:00;;;;;;;5.15;3.30;;;-0.60;99.90;;;;;;5072511;28;20229;-84
2021/03/06 07:15:29;;;;;;;5.50;3.88;;;1.60;99.90;;;;;;5075234;28;20292;-84
2021/03/06 07:17:58;;;;;;;4.05;3.28;;;-0.60;99.90;;;;;;5075762;28;20275;-82
2021/03/06 07:20:32;;;;;;;4.53;3.35;;;-0.40;99.90;;;;;;5079899;28;20201;-83
2021/03/06 07:23:10;;;;;;;6.55;3.78;;;-0.10;99.90;;;;;;5079683;28;20288;-84
2021/03/06 07:25:37;;;;;;;5.32;3.90;;;;;;;;;;5079232;28;20251;-85
2021/03/06 07:28:06;;;;;;;4.03;3.17;;;0.00;99.90;;;;;;5076816;28;20265;-83
2021/03/06 07:30:32;;;;;;;4.32;3.05;;;0.10;99.90;;;;;;5077695;28;20269;-85
2021/03/06 07:33:03;;;;;;;4.93;3.40;;;0.30;99.90;;;;;;5078475;28;20287;-90
2021/03/06 07:35:33;;;;;;;3.88;3.47;;;0.30;99.90;;;;;;5078611;28;20288;-86
2021/03/06 07:38:03;;;;;;;3.70;2.65;;;1.10;99.90;;;;;;5079686;28;20300;-87
2021/03/06 07:40:33;;;;;;;8.73;4.35;;;0.50;99.10;;;;;;5080013;28;20656;-88
2021/03/06 07:43:04;;;;;;;7.50;3.38;;;1.20;99.90;;;;;;5077999;28;20237;-86
2021/03/06 07:45:30;;;;;;;6.22;3.85;;;0.80;98.70;;;;;;5079820;28;20288;-87
2021/03/06 07:48:06;;;;;;;6.95;4.28;;;0.90;98.40;;;;;;5080091;28;20288;-87
2021/03/06 07:50:35;;;;;;;3.83;3.42;;;1.00;98.20;;;;;;5098243;28;20244;-92
2021/03/06 07:53:03;;;;;;;16.83;4.68;;;1.00;98.20;;;;;;5118439;28;20201;-86
2021/03/06 07:55:32;;;;;;;5.75;4.03;;;1.10;98.50;;;;;;5120777;28;20208;-86
2021/03/06 07:58:12;;;;;;;3.42;3.10;;;3.10;99.40;;;;;;5120411;28;20216;-85
2021/03/06 08:00:44;;;;;;;6.07;3.78;;;1.60;98.60;;;;;;5093146;28;20201;-84
2021/03/06 08:03:37;;;;;;;5.82;3.33;;;1.60;97.80;;;;;;5077811;28;20292;-83
2021/03/06 08:06:05;;;;;;;5.78;4.15;;;1.60;97.50;;;;;;5076012;28;20205;-82
2021/03/06 08:09:00;;;;;;;8.38;4.35;;;1.70;97.80;;;;;;5076381;28;20233;-88
2021/03/06 08:11:45;;;;;;;4.97;3.90;;;1.70;97.60;;;;;;5069980;28;20197;-83
2021/03/06 08:14:42;;;;;;;4.60;3.78;;;1.90;98.00;;;;;;5077279;28;20252;-82
2021/03/06 08:17:31;;;;;;;8.32;5.32;;;2.10;99.90;;;;;;5075908;28;20206;-83
2021/03/06 08:19:57;;;;;;;5.53;4.10;;;2.10;97.20;;;;;;5081829;28;20208;-81
2021/03/06 08:22:24;;;;;;;4.30;2.55;;;2.20;97.10;;;;;;5096647;28;20220;-81
2021/03/06 08:24:51;;;;;;;3.42;3.13;;;2.20;96.10;;;;;;5096257;28;20284;-82
2021/03/06 08:27:22;;;;;;;6.57;3.88;;;2.40;96.40;;;;;;5096356;28;20299;-81
2021/03/06 08:29:51;;;;;;;7.22;3.60;;;2.50;95.90;;;;;;5094174;28;20653;-81
2021/03/06 08:32:27;;;;;;;5.22;3.63;;;2.50;96.40;;;;;;5096051;28;20283;-82
2021/03/06 08:34:54;;;;;;;4.85;3.25;;;2.70;95.90;;;;;;5094647;28;20315;-85
2021/03/06 08:37:36;;;;;;;4.90;3.80;;;2.70;96.00;;;;;;5095855;28;20334;-82
2021/03/06 08:40:15;;;;;;;4.10;3.33;;;2.70;95.60;;;;;;5095984;28;20232;-83
2021/03/06 08:42:43;;;;;;;7.03;3.85;;;2.80;96.50;;;;;;5095603;28;20293;-82
2021/03/06 08:45:12;;;;;;;6.25;3.50;;;2.80;96.30;;;;;;5094443;28;20292;-83
2021/03/06 08:47:40;;;;;;;6.25;4.32;;;3.00;96.00;;;;;;5095822;28;20296;-84
2021/03/06 08:50:09;;;;;;;9.85;4.32;;;2.90;96.00;;;;;;5095019;28;20858;-84
2021/03/06 08:52:36;;;;;;;3.47;2.90;;;3.10;95.60;;;;;;5096028;28;20292;-83
2021/03/06 08:55:04;;;;;;;11.68;3.03;;;3.10;94.50;;;;;;5095446;28;20228;-83
2021/03/06 08:57:33;;;;;;;4.10;2.90;;;3.30;94.30;;;;;;5096042;28;20604;-82
2021/03/06 09:00:06;;;;;;;7.65;3.90;;;3.30;94.00;;;;;;5093559;28;20292;-83
2021/03/06 09:02:34;;;;;;;5.43;3.63;;;3.30;94.10;;;;;;5095790;28;20233;-82
2021/03/06 09:05:04;;;;;;;3.25;2.92;;;3.40;93.70;;;;;;5095124;28;20254;-84
2021/03/06 09:07:31;;;;;;;7.15;4.50;;;3.50;93.90;;;;;;5095570;28;20208;-82
2021/03/06 09:10:16;;;;;;;9.73;4.60;;;3.60;93.40;;;;;;5095054;28;20254;-83
2021/03/06 09:12:44;;;;;;;7.38;4.03;;;3.70;93.50;;;;;;5092041;28;20226;-82
2021/03/06 09:15:13;;;;;;;3.80;3.30;;;3.70;92.80;;;;;;5093527;28;20755;-83
2021/03/06 09:17:39;;;;;;;2.80;2.60;;;3.70;92.80;;;;;;5097511;27;20291;-83
2021/03/06 09:20:08;;;;;;;4.50;3.13;;;3.80;92.70;;;;;;5093346;28;20205;-84
2021/03/06 09:22:40;;;;;;;8.20;3.72;;;3.90;92.00;;;;;;5094700;28;20279;-84
2021/03/06 09:25:08;;;;;;;2.88;2.65;;;4.40;92.60;;;;;;5095007;28;20209;-82
2021/03/06 09:27:44;;;;;;;3.83;2.58;;;4.00;92.20;;;;;;5094216;28;20285;-79
2021/03/06 09:30:22;;;;;;;3.95;3.03;;;4.00;91.00;;;;;;5093079;28;20711;-81
2021/03/06 09:32:48;;;;;;;3.10;2.50;;;4.00;91.20;;;;;;5093941;28;20279;-83
2021/03/06 09:35:16;;;;;;;4.20;2.47;;;4.00;90.80;;;;;;5093302;28;20320;-82
2021/03/06 09:37:43;;;;;;;2.88;2.40;;;4.10;91.30;;;;;;5094714;28;20286;-85
2021/03/06 09:40:18;;;;;;;4.60;3.40;;;4.10;91.60;;;;;;5094345;28;20283;-82
2021/03/06 09:42:49;;;;;;;5.25;3.13;;;4.20;91.20;;;;;;5094307;28;20227;-84
2021/03/06 09:45:17;;;;;;;3.40;3.10;;;4.30;92.00;;;;;;5092898;28;20212;-83
2021/03/06 09:47:45;;;;;;;3.97;3.03;;;4.40;91.40;;;;;;5096039;27;20212;-83
2021/03/06 09:50:13;;;;;;;4.75;2.85;;;4.50;91.30;;;;;;5093375;28;20240;-80
2021/03/06 09:52:39;;;;;;;3.35;3.03;;;4.50;90.10;;;;;;5091602;28;20235;-81
2021/03/06 09:55:16;;;;;;;3.08;2.78;;;4.50;90.00;;;;;;5094424;28;20315;-86
2021/03/06 09:57:43;;;;;;;3.05;2.83;;;4.70;90.60;;;;;;5094196;28;20235;-81
2021/03/06 10:00:21;;;;;;;4.63;3.30;;;5.20;90.10;;;;;;5093062;28;20208;-83
2021/03/06 10:02:49;;;;;;;3.03;2.78;;;4.70;87.80;;;;;;5093855;28;20200;-82
2021/03/06 10:05:19;;;;;;;3.40;3.10;;;4.80;89.20;;;;;;5093950;28;20211;-80
2021/03/06 10:07:46;;;;;;;3.97;2.60;;;4.80;88.20;;;;;;5094654;28;20288;-82
2021/03/06 10:10:13;;;;;;;4.18;3.00;;;4.80;89.20;;;;;;5095499;28;20621;-81
2021/03/06 10:12:43;;;;;;;5.35;3.20;;;4.90;86.20;;;;;;5105415;28;20236;-81
2021/03/06 10:15:13;;;;;;;3.55;2.50;;;5.00;88.60;;;;;;5111855;28;20236;-82
2021/03/06 10:17:39;;;;;;;4.00;3.05;;;5.00;87.70;;;;;;5097924;28;20292;-82
2021/03/06 10:20:07;;;;;;;3.80;2.42;;;5.00;88.10;;;;;;5098376;28;20213;-80
2021/03/06 10:22:44;;;;;;;2.42;2.20;;;5.20;87.60;;;;;;5112047;28;20282;-83
2021/03/06 10:25:12;;;;;;;3.03;2.33;;;5.30;86.70;;;;;;5116601;28;20212;-87
2021/03/06 10:27:42;;;;;;;3.25;2.95;;;5.40;88.60;;;;;;5098241;28;20311;-83
2021/03/06 10:30:16;;;;;;;3.75;2.53;;;5.50;84.70;;;;;;5093455;28;20204;-81
2021/03/06 10:32:44;;;;;;;5.85;3.45;;;5.50;85.00;;;;;;5095392;28;20201;-84
2021/03/06 10:35:31;;;;;;;4.32;3.05;;;5.40;85.50;;;;;;5095414;28;20667;-82
2021/03/06 10:37:57;;;;;;;3.25;2.53;;;5.60;83.90;;;;;;5097659;28;20289;-84
2021/03/06 10:40:49;;;;;;;3.17;2.97;;;5.60;83.90;;;;;;5098451;28;20283;-84
2021/03/06 10:43:27;;;;;;;4.25;2.90;;;5.60;87.60;;;;;;5094066;28;20298;-81
2021/03/06 10:45:55;;;;;;;3.17;2.85;;;5.60;82.60;;;;;;5097846;28;20235;-93
2021/03/06 10:48:31;;;;;;;5.65;2.95;;;5.80;85.60;;;;;;5095434;28;20239;-82
2021/03/06 10:50:58;;;;;;;2.90;2.55;;;5.70;85.00;;;;;;5095957;28;20632;-82
2021/03/06 10:53:27;;;;;;;3.08;2.78;;;5.80;84.60;;;;;;5096934;28;20227;-85
2021/03/06 10:55:54;;;;;;;2.42;2.22;;;5.80;82.20;;;;;;5098099;28;20243;-83
2021/03/06 10:58:21;;;;;;;1.90;1.80;;;5.80;80.20;;;;;;5096444;28;20283;-84
2021/03/06 11:00:48;;;;;;;2.40;2.20;;;5.80;79.50;;;;;;5095937;28;20370;-84
2021/03/06 11:03:16;;;;;;;3.28;2.55;;;5.90;80.90;;;;;;5096361;28;20678;-83
2021/03/06 11:05:43;;;;;;;2.90;2.70;;;5.90;81.10;;;;;;5094658;28;20291;-83
2021/03/06 11:08:15;;;;;;;5.20;3.40;;;6.00;82.50;;;;;;5096458;28;20200;-86
2021/03/06 11:10:44;;;;;;;2.92;2.03;;;6.10;81.20;;;;;;5096506;28;20201;-87
2021/03/06 11:13:10;;;;;;;3.70;3.33;;;6.20;82.80;;;;;;5094507;28;20649;-83
2021/03/06 11:15:45;;;;;;;3.35;2.45;;;6.20;79.40;;;;;;5094994;28;20247;-80
2021/03/06 11:18:12;;;;;;;3.53;3.22;;;6.50;78.90;;;;;;5095429;28;20246;-82
2021/03/06 11:20:39;;;;;;;2.97;2.67;;;6.10;77.40;;;;;;5095131;28;20287;-83
2021/03/06 11:23:06;;;;;;;4.75;3.88;;;6.30;80.70;;;;;;5092388;28;20265;-79
2021/03/06 11:25:33;;;;;;;3.92;3.35;;;6.20;77.40;;;;;;5095511;28;20571;-83
2021/03/06 11:28:01;;;;;;;7.30;3.85;;;6.10;77.50;;;;;;5095054;28;20327;-81
2021/03/06 11:30:30;;;;;;;3.90;3.38;;;6.00;78.30;;;;;;5095655;28;20201;-84
2021/03/06 11:32:56;;;;;;;2.90;2.45;;;6.00;80.50;;;;;;5095524;28;20288;-84
2021/03/06 11:35:23;;;;;;;3.30;2.85;;;6.20;77.30;;;;;;5095287;28;20707;-80
2021/03/06 11:37:52;;;;;;;4.05;2.35;;;6.10;76.30;;;;;;5093163;28;20683;-83
2021/03/06 11:40:20;;;;;;;4.75;2.92;;;6.00;74.80;;;;;;5095965;28;20240;-85
2021/03/06 11:42:47;;;;;;;3.35;1.80;;;6.10;75.50;;;;;;5095718;28;20288;-85
2021/03/06 11:45:15;;;;;;;3.83;2.70;;;6.20;74.00;;;;;;5102270;28;20296;-84
2021/03/06 11:47:42;;;;;;;2.33;2.13;;;6.30;77.30;;;;;;5113017;28;20230;-83
2021/03/06 11:50:10;;;;;;;2.08;1.85;;;6.50;73.40;;;;;;5108058;28;20232;-83
2021/03/06 11:52:38;;;;;;;2.60;1.90;;;6.50;73.00;;;;;;5110704;28;20211;-81
2021/03/06 11:55:07;;;;;;;2.38;2.17;;;6.50;72.60;;;;;;5103870;28;20236;-80
2021/03/06 11:57:34;;;;;;;3.17;2.58;;;6.50;73.00;;;;;;5096162;28;20201;-83
2021/03/06 12:00:01;;;;;;;1.90;1.80;;;6.50;72.80;;;;;;5093629;28;20201;-82
2021/03/06 12:02:27;;;;;;;4.75;2.63;;;6.60;72.10;;;;;;5097696;28;20284;-83
2021/03/06 12:04:54;;;;;;;2.85;2.55;;;6.80;72.70;;;;;;5107056;28;20205;-84
2021/03/06 12:07:20;;;;;;;2.38;1.80;;;6.80;72.20;;;;;;5108284;28;20667;-83
2021/03/06 12:09:46;;;;;;;3.60;2.33;;;6.90;72.00;;;;;;5104194;28;20205;-84
2021/03/06 12:12:14;;;;;;;2.65;2.45;;;6.80;72.70;;;;;;5107292;28;20696;-83
2021/03/06 12:14:40;;;;;;;3.50;2.33;;;7.10;76.20;;;;;;5097560;28;20315;-80
2021/03/06 12:17:06;;;;;;;4.53;2.47;;;7.30;72.20;;;;;;5097544;28;20296;-80
2021/03/06 12:19:33;;;;;;;5.55;3.17;;;7.20;72.50;;;;;;5099906;28;20335;-85
2021/03/06 12:21:59;;;;;;;2.38;1.85;;;7.10;70.00;;;;;;5113823;28;20216;-85
2021/03/06 12:24:26;;;;;;;3.13;2.45;;;6.90;68.50;;;;;;5113640;28;20220;-83
2021/03/06 12:26:52;;;;;;;3.30;2.67;;;6.90;69.20;;;;;;5110881;28;20211;-82
2021/03/06 12:29:20;;;;;;;3.85;2.75;;;7.10;70.30;;;;;;5101635;28;20278;-85
2021/03/06 12:31:47;;;;;;;2.13;1.90;;;6.90;69.20;;;;;;5104593;28;20247;-82
2021/03/06 12:34:14;;;;;;;4.55;2.65;;;6.90;69.90;;;;;;5098608;28;20311;-82
2021/03/06 12:36:43;;;;;;;2.00;1.90;;;6.90;70.10;;;;;;5096919;28;20201;-81
2021/03/06 12:39:10;;;;;;;2.20;2.00;;;6.90;66.60;;;;;;5095883;28;20232;-81
2021/03/06 12:41:37;;;;;;;3.10;2.08;;;7.10;71.10;;;;;;5096588;28;20205;-83
2021/03/06 12:44:04;;;;;;;2.75;2.13;;;7.50;73.30;;;;;;5095839;28;20208;-82
2021/03/06 12:46:32;;;;;;;2.08;1.92;;;7.60;72.20;;;;;;5095363;28;20636;-81
2021/03/06 12:48:58;;;;;;;2.45;2.22;;;7.70;74.10;;;;;;5095133;28;20672;-81
2021/03/06 12:51:25;;;;;;;4.57;2.70;;;7.70;72.00;;;;;;5094037;28;20668;-80
2021/03/06 12:53:51;;;;;;;2.30;2.10;;;7.80;70.50;;;;;;5095280;28;20224;-81
2021/03/06 12:56:18;;;;;;;2.50;1.90;;;7.70;68.80;;;;;;5096735;28;20247;-77
2021/03/06 12:58:45;;;;;;;3.22;2.42;;;7.50;69.90;;;;;;5095641;28;20288;-81
2021/03/06 13:01:11;;;;;;;4.15;2.15;;;7.40;69.50;;;;;;5095757;28;20749;-80
2021/03/06 13:03:38;;;;;;;2.53;2.33;;;7.40;70.60;;;;;;5094017;28;20201;-80
2021/03/06 13:06:05;;;;;;;2.50;2.30;;;7.50;71.00;;;;;;5095091;28;20244;-79
2021/03/06 13:08:31;;;;;;;3.45;3.15;;;7.40;71.40;;;;;;5095258;28;20577;-81
2021/03/06 13:10:59;;;;;;;3.38;2.83;;;7.50;71.50;;;;;;5094953;28;20251;-79
2021/03/06 13:13:25;;;;;;;6.53;2.97;;;7.70;70.20;;;;;;5093441;28;20629;-81
2021/03/06 13:15:52;;;;;;;2.35;2.15;;;7.80;73.00;;;;;;5094511;28;20212;-80
2021/03/06 13:18:18;;;;;;;4.20;3.60;;;7.80;69.40;;;;;;5094632;28;20273;-80
2021/03/06 13:20:45;;;;;;;4.57;2.63;;;7.70;68.20;;;;;;5093700;28;20231;-81